createdAt,value
2023-05-24T00:00:27.011Z,2.75
2023-05-24T00:02:54.449Z,3.00
2023-05-24T00:05:19.635Z,2.40
2023-05-24T00:06:28.615Z,2.67
2023-05-24T00:08:54.000Z,3.12
2023-05-24T00:11:22.648Z,2.70
2023-05-24T00:13:49.230Z,3.07
2023-05-24T00:16:16.254Z,2.65
2023-05-24T00:18:41.179Z,2.80
2023-05-24T00:21:08.115Z,2.60
2023-05-24T00:23:32.348Z,2.85
2023-05-24T00:24:45.525Z,3.30
2023-05-24T00:27:11.690Z,2.58
2023-05-24T00:29:37.532Z,3.22
2023-05-24T00:32:03.705Z,2.92
2023-05-24T00:34:48.319Z,2.70
2023-05-24T00:35:57.962Z,2.60
2023-05-24T00:37:08.071Z,2.70
2023-05-24T00:39:32.538Z,3.25
2023-05-24T00:40:43.723Z,3.00
2023-05-24T00:43:08.101Z,2.72
2023-05-24T00:44:17.222Z,3.00
2023-05-24T00:46:42.068Z,2.53
2023-05-24T00:47:58.285Z,2.70
2023-05-24T00:50:23.284Z,2.73
2023-05-24T00:52:51.195Z,2.50
2023-05-24T00:54:01.317Z,2.75
2023-05-24T00:56:27.982Z,2.75
2023-05-24T00:58:56.971Z,3.00
2023-05-24T01:01:29.058Z,2.82
2023-05-24T01:03:53.800Z,2.75
2023-05-24T01:06:19.826Z,2.30
2023-05-24T01:09:05.601Z,2.28
2023-05-24T01:13:02.401Z,2.65
2023-05-24T01:15:40.745Z,3.05
2023-05-24T01:18:36.213Z,2.52
2023-05-24T01:21:38.267Z,2.85
2023-05-24T01:24:32.838Z,2.63
2023-05-24T01:27:25.542Z,2.70
2023-05-24T01:28:34.932Z,3.05
2023-05-24T01:31:01.778Z,2.78
2023-05-24T01:33:27.804Z,3.00
2023-05-24T01:35:54.504Z,2.77
2023-05-24T01:38:20.047Z,3.17
2023-05-24T01:40:49.651Z,2.83
2023-05-24T01:42:28.063Z,2.77
2023-05-24T01:45:03.063Z,2.85
2023-05-24T01:46:33.447Z,3.07
2023-05-24T01:49:35.070Z,2.78
2023-05-24T01:52:16.701Z,3.32
2023-05-24T01:54:47.172Z,2.83
2023-05-24T01:57:15.127Z,3.33
2023-05-24T01:58:27.020Z,3.03
2023-05-24T02:00:55.494Z,3.17
2023-05-24T02:03:21.949Z,3.30
2023-05-24T02:04:32.260Z,3.22
2023-05-24T02:06:57.767Z,3.23
2023-05-24T02:08:07.404Z,3.65
2023-05-24T02:09:17.276Z,3.10
2023-05-24T02:11:49.026Z,3.66
2023-05-24T02:14:34.119Z,4.17
2023-05-24T02:17:00.547Z,3.65
2023-05-24T02:19:26.736Z,4.07
2023-05-24T02:21:52.910Z,3.54
2023-05-24T02:24:18.752Z,4.07
2023-05-24T02:26:43.792Z,3.75
2023-05-24T02:29:10.130Z,3.70
2023-05-24T02:31:35.437Z,4.30
2023-05-24T02:32:47.277Z,3.35
2023-05-24T02:33:57.974Z,3.37
2023-05-24T02:37:33.095Z,3.10
2023-05-24T02:39:59.206Z,3.68
2023-05-24T02:42:24.700Z,3.40
2023-05-24T02:44:51.586Z,3.47
2023-05-24T02:47:16.063Z,3.80
2023-05-24T02:49:42.821Z,3.45
2023-05-24T02:50:52.056Z,3.50
2023-05-24T02:53:17.632Z,3.67
2023-05-24T02:54:26.844Z,3.93
2023-05-24T02:56:55.450Z,3.80
2023-05-24T02:59:23.630Z,5.10
2023-05-24T03:01:48.027Z,4.22
2023-05-24T03:04:16.003Z,5.40
2023-05-24T03:05:25.611Z,3.92
2023-05-24T03:07:49.394Z,3.87
2023-05-24T03:10:15.799Z,5.87
2023-05-24T03:12:42.723Z,7.24
2023-05-24T03:13:54.005Z,3.92
2023-05-24T03:16:19.842Z,4.45
2023-05-24T03:18:47.074Z,4.05
2023-05-24T03:21:12.691Z,4.75
2023-05-24T03:23:38.146Z,4.27
2023-05-24T03:24:48.651Z,4.15
2023-05-24T03:25:59.896Z,3.93
2023-05-24T03:28:24.749Z,3.92
2023-05-24T03:30:51.474Z,3.80
2023-05-24T03:33:17.186Z,3.45
2023-05-24T03:35:41.959Z,3.40
2023-05-24T03:36:52.830Z,4.00
2023-05-24T03:40:30.424Z,4.35
2023-05-24T03:41:41.446Z,3.90
2023-05-24T03:42:52.367Z,4.07
2023-05-24T03:45:27.092Z,4.18
2023-05-24T03:47:48.335Z,4.05
2023-05-24T03:50:14.609Z,8.13
2023-05-24T03:52:41.935Z,4.85
2023-05-24T03:55:06.775Z,4.53
2023-05-24T03:57:30.936Z,4.97
2023-05-24T03:59:56.355Z,5.36
2023-05-24T04:02:21.557Z,4.97
2023-05-24T04:03:33.457Z,5.35
2023-05-24T04:04:43.304Z,5.15
2023-05-24T04:07:10.266Z,5.37
2023-05-24T04:08:20.504Z,5.50
2023-05-24T04:09:29.198Z,4.83
2023-05-24T04:11:54.480Z,6.70
2023-05-24T04:14:22.357Z,5.48
2023-05-24T04:16:48.739Z,5.33
2023-05-24T04:17:58.489Z,5.30
2023-05-24T04:19:08.727Z,5.82
2023-05-24T04:21:36.921Z,6.17
2023-05-24T04:22:50.332Z,7.10
2023-05-24T04:25:17.115Z,6.88
2023-05-24T04:26:26.388Z,6.46
2023-05-24T04:28:52.051Z,6.23
2023-05-24T04:30:01.695Z,6.38
2023-05-24T04:32:30.182Z,6.68
2023-05-24T04:34:55.994Z,6.68
2023-05-24T04:37:21.990Z,7.35
2023-05-24T04:39:48.450Z,7.80
2023-05-24T04:40:59.870Z,7.38
2023-05-24T04:43:43.118Z,7.83
2023-05-24T04:44:52.803Z,7.87
2023-05-24T04:46:02.562Z,6.83
2023-05-24T04:47:13.581Z,7.85
2023-05-24T04:49:40.805Z,7.78
2023-05-24T04:50:56.293Z,7.03
2023-05-24T04:53:40.971Z,7.67
2023-05-24T04:56:07.977Z,7.73
2023-05-24T04:58:32.975Z,7.85
2023-05-24T05:00:57.405Z,7.52
2023-05-24T05:03:21.156Z,7.33
2023-05-24T05:05:47.149Z,7.70
2023-05-24T05:08:11.050Z,6.62
2023-05-24T05:10:37.063Z,7.60
2023-05-24T05:13:03.709Z,6.98
2023-05-24T05:14:14.431Z,7.02
2023-05-24T05:16:40.765Z,6.60
2023-05-24T05:19:05.373Z,7.73
2023-05-24T05:21:35.417Z,7.63
2023-05-24T05:24:03.600Z,8.75
2023-05-24T05:26:28.304Z,8.26
2023-05-24T05:29:11.362Z,9.05
2023-05-24T05:31:36.462Z,8.82
2023-05-24T05:34:01.839Z,8.88
2023-05-24T05:36:27.752Z,9.10
2023-05-24T05:38:51.506Z,8.73
2023-05-24T05:41:15.579Z,7.93
2023-05-24T05:42:26.185Z,8.45
2023-05-24T05:47:12.904Z,7.25
2023-05-24T05:49:38.743Z,6.95
2023-05-24T05:53:12.611Z,6.02
2023-05-24T05:55:37.075Z,6.95
2023-05-24T05:56:48.406Z,5.30
2023-05-24T05:59:13.028Z,5.37
2023-05-24T06:01:33.356Z,5.63
2023-05-24T06:03:58.130Z,4.68
2023-05-24T06:05:08.409Z,5.07
2023-05-24T06:07:35.925Z,4.48
2023-05-24T06:10:01.003Z,3.73
2023-05-24T06:12:26.051Z,5.47
2023-05-24T06:15:20.647Z,3.25
2023-05-24T06:16:30.579Z,3.03
2023-05-24T06:19:05.880Z,3.00
2023-05-24T06:21:27.545Z,2.40
2023-05-24T06:22:38.316Z,2.75
2023-05-24T06:25:04.437Z,2.43
2023-05-24T06:27:28.314Z,2.23
2023-05-24T06:30:15.134Z,2.45
2023-05-24T06:32:59.940Z,1.70
2023-05-24T06:34:09.722Z,2.20
2023-05-24T06:36:35.796Z,2.47
2023-05-24T06:37:45.578Z,2.60
2023-05-24T06:40:10.672Z,2.04
2023-05-24T06:42:39.010Z,2.22
2023-05-24T06:43:48.619Z,2.28
2023-05-24T06:46:13.041Z,1.95
2023-05-24T06:48:38.395Z,2.62
2023-05-24T06:51:03.475Z,2.04
2023-05-24T06:52:13.896Z,2.23
2023-05-24T06:53:23.726Z,1.98
2023-05-24T06:55:48.663Z,2.10
2023-05-24T06:58:15.999Z,2.10
2023-05-24T07:03:09.601Z,1.80
2023-05-24T07:05:35.181Z,1.62
2023-05-24T07:08:01.602Z,1.82
2023-05-24T07:10:27.987Z,1.73
2023-05-24T07:12:53.107Z,1.95
2023-05-24T07:15:16.769Z,1.68
2023-05-24T07:17:40.890Z,1.97
2023-05-24T07:20:10.239Z,2.03
2023-05-24T07:22:33.975Z,1.57
2023-05-24T07:24:57.940Z,1.62
2023-05-24T07:27:22.592Z,1.95
2023-05-24T07:28:32.557Z,2.00
2023-05-24T07:29:41.315Z,1.70
2023-05-24T07:30:51.161Z,1.88
2023-05-24T07:32:00.857Z,1.70
2023-05-24T07:34:29.109Z,1.92
2023-05-24T07:35:39.606Z,1.68
2023-05-24T07:38:04.085Z,2.22
2023-05-24T07:40:37.732Z,1.92
2023-05-24T07:43:03.829Z,1.75
2023-05-24T07:44:14.620Z,1.95
2023-05-24T07:46:39.232Z,1.85
2023-05-24T07:49:04.283Z,1.70
2023-05-24T07:51:28.319Z,1.52
2023-05-24T07:53:53.574Z,1.87
2023-05-24T07:56:18.094Z,2.07
2023-05-24T07:57:33.874Z,1.80
2023-05-24T08:00:02.201Z,2.00
2023-05-24T08:02:30.902Z,1.77
2023-05-24T08:04:55.118Z,1.62
2023-05-24T08:07:21.984Z,1.70
2023-05-24T08:09:47.146Z,1.45
2023-05-24T08:12:16.981Z,1.90
2023-05-24T08:14:40.162Z,2.05
2023-05-24T08:17:04.746Z,1.68
2023-05-24T08:19:30.779Z,1.60
2023-05-24T08:21:57.309Z,2.05
2023-05-24T08:23:06.716Z,1.72
2023-05-24T08:25:32.542Z,1.80
2023-05-24T08:26:43.160Z,1.57
2023-05-24T08:29:08.113Z,2.17
2023-05-24T08:31:33.429Z,2.02
2023-05-24T08:33:59.588Z,1.60
2023-05-24T08:36:24.551Z,1.95
2023-05-24T08:37:33.203Z,1.97
2023-05-24T08:39:59.334Z,2.08
2023-05-24T08:42:30.808Z,1.62
2023-05-24T08:45:07.222Z,1.70
2023-05-24T08:47:34.304Z,1.77
2023-05-24T08:50:07.213Z,1.78
2023-05-24T08:52:32.972Z,1.40
2023-05-24T08:55:01.680Z,1.70
2023-05-24T08:57:33.975Z,1.95
2023-05-24T08:59:59.871Z,1.62
2023-05-24T09:02:27.929Z,1.72
2023-05-24T09:04:54.277Z,1.60
2023-05-24T09:06:06.112Z,1.45
2023-05-24T09:08:38.237Z,1.73
2023-05-24T09:11:16.047Z,1.42
2023-05-24T09:13:45.599Z,1.48
2023-05-24T09:16:12.106Z,1.73
2023-05-24T09:17:22.390Z,1.60
2023-05-24T09:19:50.051Z,1.60
2023-05-24T09:22:15.311Z,1.43
2023-05-24T09:23:26.752Z,1.65
2023-05-24T09:25:58.085Z,1.88
2023-05-24T09:28:24.494Z,1.97
2023-05-24T09:31:07.161Z,1.55
2023-05-24T09:32:15.959Z,1.72
2023-05-24T09:33:33.035Z,1.58
2023-05-24T09:37:26.702Z,1.85
2023-05-24T09:39:52.151Z,1.95
2023-05-24T09:42:25.986Z,2.12
2023-05-24T09:45:07.650Z,2.10
2023-05-24T09:47:35.520Z,1.65
2023-05-24T09:49:03.319Z,2.12
2023-05-24T09:51:31.954Z,1.78
2023-05-24T09:53:59.605Z,2.32
2023-05-24T09:56:36.471Z,1.30
2023-05-24T09:59:07.991Z,1.70
2023-05-24T10:00:25.326Z,1.87
2023-05-24T10:01:38.185Z,1.90
2023-05-24T10:04:13.941Z,1.55
2023-05-24T10:06:43.311Z,1.70
2023-05-24T10:07:56.002Z,2.76
2023-05-24T10:09:07.274Z,2.40
2023-05-24T10:10:17.417Z,2.02
2023-05-24T10:13:02.216Z,1.83
2023-05-24T10:15:28.552Z,1.97
2023-05-24T10:17:55.069Z,1.52
2023-05-24T10:20:22.500Z,1.63
2023-05-24T10:24:06.925Z,1.97
2023-05-24T10:26:43.996Z,1.67
2023-05-24T10:29:17.374Z,2.32
2023-05-24T10:32:05.787Z,2.18
2023-05-24T10:33:16.235Z,1.87
2023-05-24T10:35:44.607Z,2.08
2023-05-24T10:38:11.214Z,1.73
2023-05-24T10:42:09.597Z,1.85
2023-05-24T10:44:33.349Z,1.77
2023-05-24T10:45:42.514Z,1.58
2023-05-24T10:48:33.220Z,2.00
2023-05-24T10:49:54.861Z,1.97
2023-05-24T10:52:56.650Z,1.75
2023-05-24T10:55:36.194Z,2.40
2023-05-24T10:58:06.270Z,2.05
2023-05-24T11:41:17.004Z,2.12
2023-05-24T11:42:28.375Z,2.05
2023-05-24T11:45:00.410Z,1.65
2023-05-24T11:47:26.510Z,1.72
2023-05-24T11:48:37.040Z,1.95
2023-05-24T11:51:06.459Z,1.92
2023-05-24T11:52:15.667Z,2.43
2023-05-24T11:54:40.294Z,2.00
2023-05-24T11:57:06.432Z,1.87
2023-05-24T11:58:26.927Z,1.70
2023-05-24T12:00:52.721Z,2.12
2023-05-24T12:02:05.321Z,1.63
2023-05-24T12:04:49.473Z,2.05
2023-05-24T12:07:18.696Z,1.87
2023-05-24T12:08:28.284Z,2.08
2023-05-24T12:09:38.992Z,1.72
2023-05-24T12:12:07.026Z,1.38
2023-05-24T12:14:40.330Z,1.48
2023-05-24T12:17:11.226Z,1.77
2023-05-24T12:19:39.401Z,1.72
2023-05-24T12:20:50.323Z,1.75
2023-05-24T12:23:16.730Z,2.02
2023-05-24T12:26:53.211Z,1.66
2023-05-24T12:28:03.751Z,1.63
2023-05-24T12:31:46.942Z,1.60
2023-05-24T12:32:57.514Z,1.68
2023-05-24T12:34:08.180Z,2.03
2023-05-24T12:36:36.544Z,1.83
2023-05-24T12:37:45.979Z,2.02
2023-05-24T12:40:20.473Z,1.87
2023-05-24T12:44:24.910Z,1.70
2023-05-24T12:45:35.357Z,2.40
2023-05-24T12:46:45.673Z,2.00
2023-05-24T12:49:12.348Z,1.90
2023-05-24T12:51:38.534Z,1.80
2023-05-24T12:54:04.895Z,1.95
2023-05-24T12:56:32.076Z,2.12
2023-05-24T12:58:58.592Z,1.88
2023-05-24T13:01:25.584Z,2.27
2023-05-24T13:02:34.403Z,1.95
2023-05-24T13:04:59.124Z,2.02
2023-05-24T13:06:08.967Z,1.90
2023-05-24T13:08:33.714Z,1.90
2023-05-24T13:10:58.377Z,2.50
2023-05-24T13:12:08.896Z,2.23
2023-05-24T13:14:35.000Z,1.85
2023-05-24T13:17:00.771Z,2.00
2023-05-24T13:19:25.660Z,2.12
2023-05-24T13:22:02.262Z,2.22
2023-05-24T13:24:27.724Z,2.18
2023-05-24T13:25:36.668Z,1.75
2023-05-24T13:28:03.682Z,1.80
2023-05-24T13:30:29.655Z,2.70
2023-05-24T13:33:12.955Z,2.28
2023-05-24T13:35:42.486Z,1.93
2023-05-24T13:38:09.372Z,2.05
2023-05-24T13:40:34.821Z,2.03
2023-05-24T13:43:01.303Z,2.10
2023-05-24T13:45:25.095Z,1.55
2023-05-24T13:47:52.798Z,1.80
2023-05-24T13:49:02.891Z,1.30
2023-05-24T13:51:30.138Z,1.25
2023-05-24T13:53:55.900Z,1.40
2023-05-24T13:56:21.851Z,1.37
2023-05-24T13:58:46.225Z,1.75
2023-05-24T14:01:11.809Z,1.28
2023-05-24T14:04:47.983Z,1.60
2023-05-24T14:07:13.663Z,1.43
2023-05-24T14:09:37.305Z,1.55
2023-05-24T14:12:07.640Z,1.53
2023-05-24T14:15:44.790Z,1.67
2023-05-24T14:16:55.749Z,1.40
2023-05-24T14:20:32.268Z,1.72
2023-05-24T14:22:58.400Z,1.93
2023-05-24T14:26:32.678Z,1.27
2023-05-24T14:28:59.387Z,1.70
2023-05-24T14:31:24.371Z,1.65
2023-05-24T14:32:35.621Z,1.77
2023-05-24T14:33:45.479Z,2.13
2023-05-24T14:34:55.127Z,1.68
2023-05-24T14:36:04.938Z,2.65
2023-05-24T14:38:28.343Z,2.23
2023-05-24T14:40:52.897Z,1.65
2023-05-24T14:42:02.955Z,1.80
2023-05-24T14:43:13.056Z,1.55
2023-05-24T14:45:40.670Z,2.03
2023-05-24T14:46:53.157Z,1.80
2023-05-24T14:48:03.607Z,1.80
2023-05-24T14:50:32.150Z,1.60
2023-05-24T14:53:01.826Z,2.20
2023-05-24T14:54:12.545Z,2.45
2023-05-24T14:56:38.286Z,2.05
2023-05-24T14:59:03.014Z,1.87
2023-05-24T15:01:27.901Z,2.07
2023-05-24T15:03:53.509Z,1.88
2023-05-24T15:06:17.888Z,1.52
2023-05-24T15:08:41.952Z,1.65
2023-05-24T15:11:05.752Z,1.70
2023-05-24T15:13:30.572Z,1.82
2023-05-24T15:17:05.063Z,1.68
2023-05-24T15:19:29.791Z,2.08
2023-05-24T15:21:56.127Z,1.60
2023-05-24T15:24:20.499Z,1.67
2023-05-24T15:26:44.424Z,2.08
2023-05-24T15:29:10.650Z,1.85
2023-05-24T15:31:39.132Z,1.80
2023-05-24T15:32:48.259Z,2.45
2023-05-24T15:35:14.529Z,1.93
2023-05-24T15:37:41.052Z,2.10
2023-05-24T15:40:09.744Z,2.00
2023-05-24T15:41:24.309Z,2.13
2023-05-24T15:42:35.567Z,1.80
2023-05-24T15:44:59.974Z,1.95
2023-05-24T15:47:26.705Z,2.22
2023-05-24T15:49:53.135Z,1.92
2023-05-24T15:51:39.726Z,1.87
2023-05-24T15:52:14.230Z,2.23
2023-05-24T15:54:39.634Z,1.77
2023-05-24T15:57:04.019Z,2.07
2023-05-24T15:59:30.499Z,1.88
2023-05-24T16:00:42.107Z,2.10
2023-05-24T16:01:51.531Z,2.02
2023-05-24T16:04:17.568Z,1.90
2023-05-24T16:06:44.191Z,1.90
2023-05-24T16:07:52.736Z,2.20
2023-05-24T16:10:17.356Z,1.90
2023-05-24T16:11:27.765Z,3.30
2023-05-24T16:13:53.870Z,2.15
2023-05-24T16:16:18.183Z,1.97
2023-05-24T16:18:42.290Z,2.02
2023-05-24T16:19:52.203Z,2.10
2023-05-24T16:21:01.145Z,1.95
2023-05-24T16:22:10.523Z,1.65
2023-05-24T16:24:41.245Z,1.75
2023-05-24T16:27:09.294Z,1.90
2023-05-24T16:29:37.239Z,1.67
2023-05-24T16:32:01.200Z,1.95
2023-05-24T16:33:11.583Z,3.42
2023-05-24T16:34:24.009Z,3.10
2023-05-24T16:36:49.314Z,2.50
2023-05-24T16:39:15.542Z,1.73
2023-05-24T16:41:41.985Z,2.42
2023-05-24T16:42:53.754Z,2.65
2023-05-24T16:45:20.319Z,1.63
2023-05-24T16:46:30.167Z,1.73
2023-05-24T16:48:55.672Z,2.10
2023-05-24T16:51:22.889Z,2.25
2023-05-24T16:53:46.784Z,1.38
2023-05-24T16:56:10.341Z,1.63
2023-05-24T16:58:36.856Z,1.70
2023-05-24T16:59:47.759Z,2.05
2023-05-24T17:02:14.448Z,1.90
2023-05-24T17:04:45.699Z,2.25
2023-05-24T17:07:12.286Z,2.13
2023-05-24T17:09:38.546Z,2.12
2023-05-24T17:12:06.517Z,2.02
2023-05-24T17:14:32.024Z,2.05
2023-05-24T17:17:07.051Z,2.60
2023-05-24T17:19:32.284Z,2.93
2023-05-24T17:23:06.979Z,5.50
2023-05-24T17:25:31.711Z,5.78
2023-05-24T17:27:56.927Z,4.80
2023-05-24T17:29:06.143Z,4.65
2023-05-24T17:31:32.671Z,3.90
2023-05-24T17:33:57.975Z,3.62
2023-05-24T17:35:07.973Z,3.43
2023-05-24T17:37:31.940Z,3.70
2023-05-24T17:39:57.122Z,3.67
2023-05-24T17:42:24.785Z,3.33
2023-05-24T17:44:53.018Z,3.30
2023-05-24T17:47:22.719Z,3.72
2023-05-24T17:48:37.556Z,3.30
2023-05-24T17:51:01.798Z,3.07
2023-05-24T17:53:33.077Z,2.67
2023-05-24T17:54:41.854Z,2.93
2023-05-24T17:57:07.386Z,2.60
2023-05-24T17:59:34.176Z,2.37
2023-05-24T18:01:57.923Z,2.62
2023-05-24T18:04:22.740Z,3.82
2023-05-24T18:05:33.487Z,3.80
2023-05-24T18:06:44.961Z,3.55
2023-05-24T18:07:54.039Z,3.38
2023-05-24T18:10:20.122Z,2.73
2023-05-24T18:12:44.411Z,2.88
2023-05-24T18:15:08.677Z,2.58
2023-05-24T18:16:25.019Z,2.83
2023-05-24T18:19:10.786Z,2.85
2023-05-24T18:20:23.124Z,2.60
2023-05-24T18:21:32.073Z,2.80
2023-05-24T18:23:58.786Z,2.75
2023-05-24T18:26:23.442Z,2.60
2023-05-24T18:28:47.195Z,2.62
2023-05-24T18:29:57.806Z,2.70
2023-05-24T18:32:29.035Z,3.28
2023-05-24T18:33:39.946Z,3.45
2023-05-24T18:36:07.553Z,3.13
2023-05-24T18:38:36.081Z,6.40
2023-05-24T18:41:00.651Z,4.22
2023-05-24T18:43:26.041Z,3.20
2023-05-24T18:44:38.691Z,3.80
2023-05-24T18:47:03.379Z,4.20
2023-05-24T18:49:28.356Z,4.62
2023-05-24T18:51:52.432Z,3.72
2023-05-24T18:53:02.311Z,3.87
2023-05-24T18:55:28.589Z,4.28
2023-05-24T18:56:37.612Z,4.20
2023-05-24T18:57:46.327Z,4.82
2023-05-24T19:00:13.711Z,5.38
2023-05-24T19:01:23.722Z,4.70
2023-05-24T19:03:55.398Z,4.98
2023-05-24T19:06:24.431Z,5.12
2023-05-24T19:08:50.043Z,6.40
2023-05-24T19:09:58.836Z,5.78
2023-05-24T19:11:10.148Z,5.77
2023-05-24T19:12:19.232Z,5.88
2023-05-24T19:13:28.487Z,8.95
2023-05-24T19:15:54.406Z,9.87
2023-05-24T19:19:29.860Z,6.68
2023-05-24T19:20:38.819Z,7.15
2023-05-24T19:23:02.747Z,8.70
2023-05-24T19:25:27.848Z,7.93
2023-05-24T19:27:59.060Z,11.58
2023-05-24T19:30:19.262Z,12.12
2023-05-24T19:32:44.489Z,9.23
2023-05-24T19:34:00.594Z,8.98
2023-05-24T19:36:23.530Z,7.98
2023-05-24T19:38:47.310Z,6.42
2023-05-24T19:41:12.549Z,6.40
2023-05-24T19:43:36.070Z,6.40
2023-05-24T19:46:01.182Z,5.42
2023-05-24T19:48:27.104Z,5.55
2023-05-24T19:51:00.130Z,6.27
2023-05-24T19:53:24.415Z,6.12
2023-05-24T19:55:48.160Z,6.32
2023-05-24T19:58:13.924Z,6.42
2023-05-24T20:00:38.687Z,6.70
2023-05-24T20:03:04.753Z,22.15
2023-05-24T20:05:29.719Z,9.92
2023-05-24T20:06:38.832Z,7.95
2023-05-24T20:09:03.519Z,6.95
2023-05-24T20:10:14.508Z,6.60
2023-05-24T20:13:51.988Z,5.85
2023-05-24T20:16:17.882Z,6.65
2023-05-24T20:17:27.599Z,6.60
2023-05-24T20:19:53.501Z,6.75
2023-05-24T20:22:18.244Z,6.30
2023-05-24T20:24:42.336Z,6.17
2023-05-24T20:27:07.662Z,5.80
2023-05-24T20:29:32.254Z,6.10
2023-05-24T20:31:57.195Z,6.48
2023-05-24T20:34:21.069Z,6.70
2023-05-24T20:35:39.866Z,6.27
2023-05-24T20:36:48.783Z,6.23
2023-05-24T20:39:13.781Z,6.90
2023-05-24T20:41:39.867Z,7.07
2023-05-24T20:42:48.884Z,6.65
2023-05-24T20:45:13.091Z,7.73
2023-05-24T20:47:37.632Z,7.70
2023-05-24T20:50:03.476Z,7.10
2023-05-24T20:52:47.202Z,6.77
2023-05-24T20:53:56.109Z,7.58
2023-05-24T20:55:07.220Z,7.18
2023-05-24T20:57:33.053Z,6.92
2023-05-24T20:58:45.116Z,6.70
2023-05-24T21:01:10.104Z,6.73
2023-05-24T21:03:36.919Z,6.00
2023-05-24T21:04:47.107Z,6.50
2023-05-24T21:05:56.763Z,6.80
2023-05-24T21:08:20.986Z,7.62
2023-05-24T21:09:31.120Z,7.87
2023-05-24T21:11:55.206Z,8.43
2023-05-24T21:14:21.143Z,7.20
2023-05-24T21:15:31.225Z,7.68
2023-05-24T21:17:55.321Z,7.72
2023-05-24T21:20:19.160Z,8.38
2023-05-24T21:21:28.650Z,7.87
2023-05-24T21:23:52.688Z,7.67
2023-05-24T21:25:02.304Z,7.80
2023-05-24T21:27:27.683Z,7.00
2023-05-24T21:28:38.134Z,7.07
2023-05-24T21:32:12.345Z,6.75
2023-05-24T21:34:37.050Z,5.80
2023-05-24T21:35:46.683Z,6.02
2023-05-24T21:38:11.570Z,5.63
2023-05-24T21:40:37.188Z,5.13
2023-05-24T21:43:03.935Z,4.90
2023-05-24T21:45:28.606Z,4.80
2023-05-24T21:46:38.575Z,5.33
2023-05-24T21:49:03.677Z,4.75
2023-05-24T21:51:29.344Z,4.62
2023-05-24T21:53:53.965Z,5.08
2023-05-24T21:55:10.174Z,4.20
2023-05-24T21:57:36.041Z,4.50
2023-05-24T21:58:45.702Z,3.90
2023-05-24T22:01:11.261Z,4.55
2023-05-24T22:02:22.065Z,4.63
2023-05-24T22:04:49.172Z,4.55
2023-05-24T22:07:13.848Z,4.95
2023-05-24T22:09:37.484Z,4.18
2023-05-24T22:10:46.562Z,3.90
2023-05-24T22:13:14.049Z,4.33
2023-05-24T22:14:23.684Z,3.83
2023-05-24T22:15:34.406Z,4.42
2023-05-24T22:18:01.123Z,3.83
2023-05-24T22:20:32.174Z,3.90
2023-05-24T22:23:00.432Z,3.47
2023-05-24T22:25:25.900Z,3.48
2023-05-24T22:27:50.723Z,3.35
2023-05-24T22:30:17.228Z,3.60
2023-05-24T22:32:47.151Z,3.37
2023-05-24T22:35:15.901Z,3.40
2023-05-24T22:37:40.226Z,3.90
2023-05-24T22:40:05.868Z,4.03
2023-05-24T22:42:31.320Z,4.10
2023-05-24T22:44:56.360Z,3.83
2023-05-24T22:47:22.683Z,3.97
2023-05-24T22:48:33.397Z,2.88
2023-05-24T22:50:59.578Z,3.90
2023-05-24T22:53:26.385Z,4.43
2023-05-24T22:55:51.250Z,3.60
2023-05-24T22:58:17.094Z,4.08
2023-05-24T22:59:26.600Z,3.65
2023-05-24T23:01:52.071Z,4.30
2023-05-24T23:04:21.502Z,3.95
2023-05-24T23:06:47.207Z,4.05
2023-05-24T23:07:58.931Z,4.08
2023-05-24T23:10:24.639Z,4.00
2023-05-24T23:12:51.662Z,3.73
2023-05-24T23:14:01.807Z,3.90
2023-05-24T23:15:14.162Z,3.60
2023-05-24T23:17:39.658Z,3.10
2023-05-24T23:20:06.381Z,3.27
2023-05-24T23:22:32.228Z,3.40
2023-05-24T23:23:42.443Z,3.68
2023-05-24T23:26:07.261Z,3.63
2023-05-24T23:28:33.061Z,3.85
2023-05-24T23:29:42.330Z,3.53
2023-05-24T23:32:10.033Z,5.30
2023-05-24T23:33:18.952Z,5.35
2023-05-24T23:35:44.194Z,5.92
2023-05-24T23:38:10.036Z,5.52
2023-05-24T23:40:37.938Z,4.10
2023-05-24T23:43:22.495Z,3.87
2023-05-24T23:45:48.495Z,3.48
2023-05-24T23:48:14.983Z,3.07
2023-05-24T23:50:50.516Z,3.05
2023-05-24T23:51:52.228Z,3.27
2023-05-24T23:53:03.925Z,3.48
2023-05-24T23:55:31.685Z,3.47
2023-05-24T23:57:59.079Z,3.80
